createdAt,value
2023-11-07T00:01:29.265Z,0.73
2023-11-07T00:03:57.285Z,1.23
2023-11-07T00:06:25.203Z,1.40
2023-11-07T00:08:52.789Z,0.80
2023-11-07T00:11:20.712Z,0.80
2023-11-07T00:13:51.488Z,1.30
2023-11-07T00:16:18.946Z,1.73
2023-11-07T00:18:48.506Z,1.30
2023-11-07T00:21:16.012Z,1.08
2023-11-07T00:23:43.186Z,1.08
2023-11-07T00:26:10.577Z,0.90
2023-11-07T00:28:39.815Z,1.10
2023-11-07T00:31:07.405Z,0.90
2023-11-07T00:33:34.852Z,0.70
2023-11-07T00:36:02.374Z,0.65
2023-11-07T00:38:30.283Z,0.70
2023-11-07T00:40:57.724Z,0.90
2023-11-07T00:43:24.805Z,0.85
2023-11-07T00:45:51.872Z,1.17
2023-11-07T00:48:19.870Z,0.73
2023-11-07T00:50:46.998Z,0.90
2023-11-07T00:53:14.299Z,1.23
2023-11-07T00:55:41.607Z,1.00
2023-11-07T00:58:09.410Z,0.73
2023-11-07T01:00:37.290Z,0.88
2023-11-07T01:03:04.652Z,0.70
2023-11-07T01:05:32.249Z,0.70
2023-11-07T01:08:00.102Z,0.68
2023-11-07T01:10:27.145Z,0.80
2023-11-07T01:12:54.488Z,0.90
2023-11-07T01:15:21.724Z,0.80
2023-11-07T01:17:49.178Z,0.90
2023-11-07T01:20:17.198Z,0.98
2023-11-07T01:22:45.688Z,1.02
2023-11-07T01:25:12.761Z,1.00
2023-11-07T01:27:39.827Z,1.00
2023-11-07T01:30:08.523Z,1.00
2023-11-07T01:32:38.035Z,1.08
2023-11-07T01:35:06.013Z,1.02
2023-11-07T01:37:33.999Z,0.75
2023-11-07T01:40:01.256Z,0.70
2023-11-07T01:42:28.417Z,0.82
2023-11-07T01:44:55.705Z,1.00
2023-11-07T01:47:27.128Z,0.90
2023-11-07T01:49:54.712Z,0.75
2023-11-07T01:52:22.649Z,1.15
2023-11-07T01:54:54.239Z,0.90
2023-11-07T01:57:22.177Z,1.00
2023-11-07T01:59:50.309Z,0.90
2023-11-07T02:02:19.912Z,0.60
2023-11-07T02:04:50.268Z,0.50
2023-11-07T02:07:19.673Z,1.05
2023-11-07T02:09:47.482Z,0.50
2023-11-07T02:12:14.794Z,0.60
2023-11-07T02:14:42.336Z,0.80
2023-11-07T02:17:09.808Z,0.70
2023-11-07T02:19:36.953Z,0.75
2023-11-07T02:22:11.567Z,0.98
2023-11-07T02:24:39.067Z,1.30
2023-11-07T02:27:06.990Z,1.02
2023-11-07T02:29:34.558Z,0.75
2023-11-07T02:32:01.588Z,0.73
2023-11-07T02:34:28.834Z,0.70
2023-11-07T02:36:55.966Z,0.73
2023-11-07T02:39:23.182Z,0.80
2023-11-07T02:41:50.185Z,0.57
2023-11-07T02:44:17.489Z,0.57
2023-11-07T02:46:47.126Z,0.88
2023-11-07T02:49:15.042Z,0.75
2023-11-07T02:51:42.209Z,0.80
2023-11-07T02:54:09.278Z,0.70
2023-11-07T02:56:36.837Z,0.60
2023-11-07T02:59:05.112Z,0.57
2023-11-07T03:01:32.488Z,0.50
2023-11-07T03:03:59.542Z,0.70
2023-11-07T03:06:26.850Z,0.90
2023-11-07T03:08:54.276Z,0.93
2023-11-07T03:11:22.471Z,0.52
2023-11-07T03:13:49.545Z,0.77
2023-11-07T03:16:16.726Z,0.80
2023-11-07T03:18:43.823Z,0.90
2023-11-07T03:21:12.015Z,0.70
2023-11-07T03:23:39.423Z,0.70
2023-11-07T03:26:06.820Z,0.80
2023-11-07T03:28:34.278Z,0.70
2023-11-07T03:31:01.549Z,0.60
2023-11-07T03:33:28.645Z,0.70
2023-11-07T03:35:58.334Z,0.68
2023-11-07T03:38:25.961Z,0.60
2023-11-07T03:40:53.217Z,0.50
2023-11-07T03:43:20.305Z,0.75
2023-11-07T03:45:47.660Z,0.68
2023-11-07T03:48:15.313Z,0.80
2023-11-07T03:50:42.565Z,0.50
2023-11-07T03:53:09.773Z,0.47
2023-11-07T03:55:36.886Z,0.82
2023-11-07T03:58:04.408Z,0.65
2023-11-07T04:00:31.588Z,0.60
2023-11-07T04:02:58.795Z,0.50
2023-11-07T04:05:25.964Z,0.95
2023-11-07T04:07:52.970Z,0.57
2023-11-07T04:10:20.274Z,0.80
2023-11-07T04:12:47.306Z,0.70
2023-11-07T04:15:14.609Z,0.60
2023-11-07T04:17:42.179Z,0.88
2023-11-07T04:20:13.608Z,0.80
2023-11-07T04:22:41.098Z,0.70
2023-11-07T04:25:08.789Z,0.80
2023-11-07T04:27:39.760Z,0.70
2023-11-07T04:30:08.197Z,0.93
2023-11-07T04:32:36.137Z,0.60
2023-11-07T04:35:07.096Z,1.15
2023-11-07T04:37:35.191Z,0.68
2023-11-07T04:40:03.576Z,0.82
2023-11-07T04:42:30.630Z,0.80
2023-11-07T04:44:57.796Z,0.55
2023-11-07T04:47:25.523Z,0.75
2023-11-07T04:49:52.758Z,0.70
2023-11-07T04:52:20.579Z,0.70
2023-11-07T04:54:48.164Z,1.70
2023-11-07T04:57:15.559Z,0.75
2023-11-07T04:59:42.729Z,0.55
2023-11-07T05:02:09.746Z,0.98
2023-11-07T05:04:36.843Z,0.70
2023-11-07T05:07:04.715Z,0.90
2023-11-07T05:09:31.930Z,0.88
2023-11-07T05:12:00.483Z,1.10
2023-11-07T05:14:28.887Z,0.68
2023-11-07T05:16:56.237Z,0.93
2023-11-07T05:19:23.371Z,1.00
2023-11-07T05:21:50.458Z,0.82
2023-11-07T05:24:17.475Z,1.08
2023-11-07T05:26:45.070Z,0.63
2023-11-07T05:29:16.685Z,1.10
2023-11-07T05:31:43.822Z,0.70
2023-11-07T05:34:10.922Z,0.93
2023-11-07T05:36:38.198Z,1.08
2023-11-07T05:39:05.474Z,0.93
2023-11-07T05:41:32.543Z,0.50
2023-11-07T05:43:59.961Z,0.95
2023-11-07T05:46:28.393Z,0.70
2023-11-07T05:48:55.754Z,0.80
2023-11-07T05:51:24.688Z,0.80
2023-11-07T05:53:51.922Z,1.08
2023-11-07T05:56:19.114Z,0.98
2023-11-07T05:58:49.642Z,1.10
2023-11-07T06:01:17.257Z,1.10
2023-11-07T06:03:44.519Z,0.85
2023-11-07T06:06:11.751Z,0.85
2023-11-07T06:08:38.833Z,0.80
2023-11-07T06:11:06.106Z,1.17
2023-11-07T06:13:33.222Z,1.17
2023-11-07T06:16:00.159Z,1.20
2023-11-07T06:18:27.669Z,1.92
2023-11-07T06:20:55.221Z,0.98
2023-11-07T06:23:23.940Z,1.35
2023-11-07T06:25:51.666Z,1.40
2023-11-07T06:28:18.686Z,1.08
2023-11-07T06:30:46.155Z,1.30
2023-11-07T06:33:13.531Z,1.08
2023-11-07T06:35:41.001Z,0.80
2023-11-07T06:38:08.628Z,1.20
2023-11-07T06:40:36.054Z,1.33
2023-11-07T06:43:04.714Z,1.10
2023-11-07T06:45:32.030Z,1.10
2023-11-07T06:47:59.655Z,1.45
2023-11-07T06:50:27.496Z,0.90
2023-11-07T06:52:55.276Z,0.73
2023-11-07T06:55:26.616Z,0.85
2023-11-07T06:57:56.783Z,1.20
2023-11-07T07:00:26.757Z,0.90
2023-11-07T07:02:58.711Z,0.90
2023-11-07T07:05:27.215Z,1.00
2023-11-07T07:07:55.758Z,1.02
2023-11-07T07:10:24.372Z,0.85
2023-11-07T07:12:52.230Z,0.98
2023-11-07T07:15:19.437Z,1.17
2023-11-07T07:17:46.828Z,1.00
2023-11-07T07:20:14.283Z,1.08
2023-11-07T07:22:48.371Z,1.02
2023-11-07T07:25:21.826Z,0.98
2023-11-07T07:27:49.780Z,1.10
2023-11-07T07:30:27.902Z,1.00
2023-11-07T07:32:55.647Z,1.00
2023-11-07T07:35:23.301Z,0.95
2023-11-07T07:37:55.006Z,1.00
2023-11-07T07:40:30.513Z,1.10
2023-11-07T07:43:10.786Z,1.30
2023-11-07T07:45:44.397Z,1.10
2023-11-07T07:48:13.044Z,0.98
2023-11-07T07:50:44.411Z,1.10
2023-11-07T07:53:16.735Z,0.90
2023-11-07T07:55:45.559Z,1.00
2023-11-07T07:58:20.687Z,1.10
2023-11-07T08:00:54.158Z,1.00
2023-11-07T08:03:24.237Z,1.05
2023-11-07T08:05:54.129Z,0.88
2023-11-07T08:08:22.741Z,1.05
2023-11-07T08:10:50.704Z,1.25
2023-11-07T08:13:20.200Z,0.80
2023-11-07T08:15:51.854Z,0.90
2023-11-07T08:18:20.351Z,0.90
2023-11-07T08:20:48.737Z,0.95
2023-11-07T08:23:17.030Z,1.17
2023-11-07T08:25:44.689Z,1.00
2023-11-07T08:28:12.606Z,0.90
2023-11-07T08:30:45.858Z,0.73
2023-11-07T08:33:14.106Z,1.08
2023-11-07T08:35:42.410Z,0.70
2023-11-07T08:38:10.041Z,0.82
2023-11-07T08:40:38.057Z,0.80
2023-11-07T08:43:06.626Z,0.68
2023-11-07T08:45:34.367Z,0.80
2023-11-07T08:48:02.017Z,1.15
2023-11-07T08:50:29.719Z,0.90
2023-11-07T08:52:59.033Z,0.75
2023-11-07T08:55:27.074Z,0.80
2023-11-07T08:57:55.040Z,0.80
2023-11-07T09:00:28.284Z,0.70
2023-11-07T09:02:55.787Z,1.15
2023-11-07T09:05:23.951Z,0.60
2023-11-07T09:07:51.529Z,1.33
2023-11-07T09:10:21.122Z,0.90
2023-11-07T09:12:48.363Z,0.60
2023-11-07T09:15:15.841Z,0.98
2023-11-07T09:17:44.394Z,0.80
2023-11-07T09:20:16.437Z,0.90
2023-11-07T09:22:44.644Z,0.70
2023-11-07T09:25:13.393Z,0.90
2023-11-07T09:27:40.885Z,0.60
2023-11-07T09:30:13.786Z,0.70
2023-11-07T09:32:45.683Z,0.88
2023-11-07T09:35:13.042Z,0.90
2023-11-07T09:37:43.046Z,0.63
2023-11-07T09:40:14.532Z,0.60
2023-11-07T09:42:42.735Z,0.80
2023-11-07T09:45:16.637Z,0.88
2023-11-07T09:47:51.146Z,2.13
2023-11-07T09:50:22.609Z,0.82
2023-11-07T09:52:52.855Z,0.77
2023-11-07T09:55:20.210Z,0.63
2023-11-07T09:58:12.910Z,0.60
2023-11-07T10:00:45.475Z,0.80
2023-11-07T10:03:17.403Z,1.05
2023-11-07T10:05:49.065Z,0.88
2023-11-07T10:08:17.575Z,0.70
2023-11-07T10:10:45.198Z,1.27
2023-11-07T10:13:13.866Z,1.23
2023-11-07T10:15:41.832Z,1.33
2023-11-07T10:18:12.494Z,1.40
2023-11-07T10:20:56.282Z,1.08
2023-11-07T10:23:23.699Z,0.98
2023-11-07T10:25:51.690Z,0.80
2023-11-07T10:28:24.407Z,0.90
2023-11-07T10:30:52.015Z,1.00
2023-11-07T10:33:30.103Z,0.70
2023-11-07T10:36:01.564Z,0.70
2023-11-07T10:38:30.714Z,0.82
2023-11-07T10:40:59.745Z,1.02
2023-11-07T10:43:40.477Z,0.90
2023-11-07T10:46:11.426Z,0.98
2023-11-07T10:48:41.438Z,0.75
2023-11-07T10:51:12.702Z,0.77
2023-11-07T10:53:45.051Z,0.73
2023-11-07T10:56:15.267Z,0.95
2023-11-07T10:58:52.080Z,0.70
2023-11-07T11:01:23.348Z,0.90
2023-11-07T11:03:54.056Z,0.75
2023-11-07T11:06:25.772Z,0.88
2023-11-07T11:09:01.987Z,0.90
2023-11-07T11:11:32.736Z,0.70
2023-11-07T11:14:00.784Z,1.00
2023-11-07T11:16:28.645Z,1.15
2023-11-07T11:19:15.044Z,0.73
2023-11-07T11:22:02.283Z,0.60
2023-11-07T11:24:53.027Z,1.13
2023-11-07T11:27:24.469Z,1.17
2023-11-07T11:29:51.731Z,0.73
2023-11-07T11:32:33.203Z,0.60
2023-11-07T11:35:29.761Z,0.82
2023-11-07T11:38:14.787Z,0.52
2023-11-07T11:40:59.146Z,0.70
2023-11-07T11:43:29.285Z,0.80
2023-11-07T11:46:01.439Z,0.80
2023-11-07T11:48:53.960Z,1.25
2023-11-07T11:51:37.462Z,0.98
2023-11-07T11:54:13.135Z,0.70
2023-11-07T11:56:52.470Z,0.80
2023-11-07T11:59:22.868Z,0.85
2023-11-07T12:01:50.458Z,0.98
2023-11-07T12:04:36.989Z,0.98
2023-11-07T12:07:10.793Z,0.98
2023-11-07T12:09:51.606Z,0.95
2023-11-07T12:12:20.354Z,0.70
2023-11-07T12:15:04.167Z,0.73
2023-11-07T12:17:47.556Z,1.00
2023-11-07T12:20:18.456Z,0.70
2023-11-07T12:22:50.517Z,0.93
2023-11-07T12:25:24.676Z,0.98
2023-11-07T12:27:58.196Z,1.90
2023-11-07T12:30:25.564Z,1.35
2023-11-07T12:33:09.786Z,1.15
2023-11-07T12:35:39.166Z,0.93
2023-11-07T12:38:10.029Z,1.13
2023-11-07T12:40:39.516Z,0.65
2023-11-07T12:43:10.520Z,0.88
2023-11-07T12:45:39.467Z,1.20
2023-11-07T12:48:12.489Z,0.80
2023-11-07T12:50:47.748Z,1.17
2023-11-07T12:53:19.255Z,0.70
2023-11-07T12:55:56.014Z,0.82
2023-11-07T12:58:34.449Z,0.88
2023-11-07T13:01:05.651Z,0.90
2023-11-07T13:03:34.319Z,0.98
2023-11-07T13:06:14.047Z,0.90
2023-11-07T13:08:45.321Z,0.77
2023-11-07T13:11:16.259Z,0.82
2023-11-07T13:13:45.066Z,0.90
2023-11-07T13:16:12.726Z,0.80
2023-11-07T13:18:49.634Z,0.70
2023-11-07T13:21:21.433Z,0.70
2023-11-07T13:23:49.086Z,0.60
2023-11-07T13:26:16.986Z,0.65
2023-11-07T13:28:45.214Z,0.95
2023-11-07T13:31:14.266Z,0.77
2023-11-07T13:33:46.582Z,0.98
2023-11-07T13:36:16.020Z,0.90
2023-11-07T13:38:44.036Z,0.75
2023-11-07T13:41:11.984Z,0.60
2023-11-07T13:43:39.649Z,0.50
2023-11-07T13:46:06.669Z,0.50
2023-11-07T13:48:35.013Z,0.50
2023-11-07T13:51:03.260Z,0.68
2023-11-07T13:53:31.102Z,0.50
2023-11-07T13:55:58.078Z,0.60
2023-11-07T13:58:25.197Z,0.60
2023-11-07T14:00:52.567Z,0.50
2023-11-07T14:03:21.007Z,0.50
2023-11-07T14:05:48.235Z,0.60
2023-11-07T14:08:17.067Z,0.70
2023-11-07T14:10:45.632Z,0.57
2023-11-07T14:13:12.805Z,0.70
2023-11-07T14:15:39.877Z,0.50
2023-11-07T14:18:15.751Z,0.52
2023-11-07T14:20:56.297Z,0.85
2023-11-07T14:23:23.404Z,0.50
2023-11-07T14:25:50.929Z,0.60
2023-11-07T14:28:18.116Z,0.50
2023-11-07T14:30:45.946Z,0.65
2023-11-07T14:33:19.395Z,1.20
2023-11-07T14:35:47.481Z,0.98
2023-11-07T14:38:17.144Z,0.90
2023-11-07T14:40:46.805Z,0.80
2023-11-07T14:43:17.328Z,0.82
2023-11-07T14:45:46.013Z,0.98
2023-11-07T14:48:15.880Z,1.00
2023-11-07T14:50:44.737Z,1.35
2023-11-07T14:53:12.096Z,1.42
2023-11-07T14:55:39.783Z,0.88
2023-11-07T14:58:08.250Z,1.00
2023-11-07T15:00:41.886Z,1.70
2023-11-07T15:03:11.947Z,1.10
2023-11-07T15:05:41.011Z,0.77
2023-11-07T15:08:08.717Z,0.80
2023-11-07T15:10:36.886Z,0.90
2023-11-07T15:13:06.348Z,1.20
2023-11-07T15:15:34.747Z,0.82
2023-11-07T15:18:03.604Z,1.05
2023-11-07T15:20:32.828Z,1.13
2023-11-07T15:23:02.385Z,1.17
2023-11-07T15:25:34.919Z,1.45
2023-11-07T15:28:03.016Z,0.80
2023-11-07T15:30:30.481Z,0.90
2023-11-07T15:32:58.982Z,0.85
2023-11-07T15:35:30.238Z,0.80
2023-11-07T15:37:57.295Z,0.85
2023-11-07T15:40:24.462Z,0.98
2023-11-07T15:42:51.708Z,0.95
2023-11-07T15:45:19.753Z,0.90
2023-11-07T15:47:48.166Z,1.00
2023-11-07T15:50:18.064Z,1.05
2023-11-07T15:53:04.096Z,0.85
2023-11-07T15:55:39.707Z,1.20
2023-11-07T15:58:07.625Z,1.38
2023-11-07T16:00:35.960Z,1.13
2023-11-07T16:03:05.220Z,1.23
2023-11-07T16:05:36.755Z,1.48
2023-11-07T16:08:08.286Z,1.20
2023-11-07T16:10:36.312Z,1.05
2023-11-07T16:13:04.822Z,1.10
2023-11-07T16:15:32.457Z,1.17
2023-11-07T16:17:59.951Z,1.45
2023-11-07T16:20:28.136Z,1.30
2023-11-07T16:22:57.300Z,1.92
2023-11-07T16:25:25.277Z,1.77
2023-11-07T16:27:54.119Z,1.48
2023-11-07T16:30:21.875Z,1.52
2023-11-07T16:32:50.819Z,1.83
2023-11-07T16:35:19.344Z,1.38
2023-11-07T16:37:46.791Z,1.63
2023-11-07T16:40:16.346Z,1.17
2023-11-07T16:42:43.554Z,1.15
2023-11-07T16:45:13.804Z,1.00
2023-11-07T16:47:43.933Z,1.20
2023-11-07T16:50:14.440Z,1.27
2023-11-07T16:52:42.243Z,1.70
2023-11-07T16:55:18.122Z,1.50
2023-11-07T16:57:48.607Z,1.73
2023-11-07T17:00:19.741Z,1.58
2023-11-07T17:02:47.517Z,1.38
2023-11-07T17:05:16.618Z,1.65
2023-11-07T17:07:45.735Z,1.80
2023-11-07T17:10:13.376Z,2.42
2023-11-07T17:12:40.510Z,2.33
2023-11-07T17:15:09.353Z,3.15
2023-11-07T17:17:37.845Z,2.78
2023-11-07T17:20:07.706Z,2.35
2023-11-07T17:22:38.528Z,2.30
2023-11-07T17:25:06.658Z,2.45
2023-11-07T17:27:34.215Z,2.05
2023-11-07T17:30:01.360Z,1.83
2023-11-07T17:32:29.597Z,1.70
2023-11-07T17:34:59.628Z,1.80
2023-11-07T17:37:30.270Z,2.00
2023-11-07T17:39:57.770Z,1.52
2023-11-07T17:42:25.310Z,1.63
2023-11-07T17:44:52.881Z,1.90
2023-11-07T17:47:21.153Z,1.27
2023-11-07T17:49:48.610Z,1.70
2023-11-07T17:52:15.763Z,1.10
2023-11-07T17:54:43.153Z,1.48
2023-11-07T17:57:10.166Z,1.33
2023-11-07T17:59:38.147Z,1.25
2023-11-07T18:02:05.693Z,1.00
2023-11-07T18:04:33.211Z,1.38
2023-11-07T18:07:00.953Z,1.30
2023-11-07T18:09:29.788Z,1.40
2023-11-07T18:11:58.153Z,1.30
2023-11-07T18:14:28.341Z,1.27
2023-11-07T18:16:57.886Z,1.35
2023-11-07T18:19:25.433Z,1.23
2023-11-07T18:21:52.561Z,1.30
2023-11-07T18:24:19.660Z,1.10
2023-11-07T18:26:49.963Z,1.35
2023-11-07T18:29:17.302Z,1.10
2023-11-07T18:31:45.097Z,1.30
2023-11-07T18:34:20.686Z,1.35
2023-11-07T18:37:05.219Z,1.40
2023-11-07T18:39:34.820Z,1.30
2023-11-07T18:42:04.920Z,1.70
2023-11-07T18:44:35.585Z,1.30
2023-11-07T18:47:03.419Z,1.30
2023-11-07T18:49:33.636Z,1.50
2023-11-07T18:52:01.592Z,1.52
2023-11-07T18:54:29.001Z,1.10
2023-11-07T18:56:57.923Z,1.23
2023-11-07T18:59:33.976Z,1.20
2023-11-07T19:02:08.254Z,1.30
2023-11-07T19:04:37.738Z,1.02
2023-11-07T19:07:06.901Z,1.30
2023-11-07T19:09:34.688Z,1.05
2023-11-07T19:12:04.822Z,1.10
2023-11-07T19:14:31.991Z,1.05
2023-11-07T19:16:59.411Z,1.60
2023-11-07T19:19:28.359Z,1.90
2023-11-07T19:22:02.400Z,1.85
2023-11-07T19:24:29.940Z,1.20
2023-11-07T19:26:57.915Z,1.38
2023-11-07T19:29:25.052Z,1.40
2023-11-07T19:31:54.036Z,1.80
2023-11-07T19:34:23.796Z,1.83
2023-11-07T19:36:51.956Z,1.50
2023-11-07T19:39:22.172Z,1.63
2023-11-07T19:41:49.435Z,1.75
2023-11-07T19:44:16.783Z,1.90
2023-11-07T19:46:44.522Z,1.67
2023-11-07T19:49:11.717Z,1.65
2023-11-07T19:51:41.417Z,1.40
2023-11-07T19:54:12.062Z,1.30
2023-11-07T19:56:41.946Z,1.35
2023-11-07T19:59:11.688Z,1.75
2023-11-07T20:01:39.760Z,1.25
2023-11-07T20:04:07.460Z,1.23
2023-11-07T20:06:35.402Z,1.33
2023-11-07T20:09:02.745Z,1.38
2023-11-07T20:11:30.603Z,1.30
2023-11-07T20:13:58.224Z,1.92
2023-11-07T20:16:25.308Z,2.00
2023-11-07T20:18:53.730Z,1.90
2023-11-07T20:21:21.140Z,1.73
2023-11-07T20:23:48.252Z,1.55
2023-11-07T20:26:15.558Z,1.60
2023-11-07T20:28:42.857Z,1.20
2023-11-07T20:31:09.883Z,1.52
2023-11-07T20:33:44.583Z,1.48
2023-11-07T20:36:16.709Z,1.30
2023-11-07T20:38:43.909Z,1.33
2023-11-07T20:41:15.818Z,1.70
2023-11-07T20:43:42.954Z,1.42
2023-11-07T20:46:18.768Z,1.50
2023-11-07T20:48:54.089Z,1.67
2023-11-07T20:51:21.315Z,1.60
2023-11-07T20:53:48.481Z,1.73
2023-11-07T20:56:15.404Z,1.25
2023-11-07T20:58:42.642Z,1.67
2023-11-07T21:01:09.625Z,1.73
2023-11-07T21:03:36.687Z,1.80
2023-11-07T21:06:03.862Z,1.75
2023-11-07T21:08:30.982Z,2.08
2023-11-07T21:10:58.374Z,2.08
2023-11-07T21:13:26.706Z,1.88
2023-11-07T21:15:53.746Z,1.55
2023-11-07T21:18:20.788Z,1.90
2023-11-07T21:20:47.766Z,1.85
2023-11-07T21:23:14.782Z,1.63
2023-11-07T21:25:41.707Z,1.90
2023-11-07T21:28:10.176Z,1.75
2023-11-07T21:30:37.236Z,2.03
2023-11-07T21:33:05.950Z,1.70
2023-11-07T21:35:33.195Z,2.13
2023-11-07T21:38:00.193Z,2.08
2023-11-07T21:40:27.127Z,1.80
2023-11-07T21:42:54.217Z,1.92
2023-11-07T21:45:21.318Z,1.65
2023-11-07T21:47:48.511Z,1.60
2023-11-07T21:50:15.610Z,1.77
2023-11-07T21:52:42.694Z,2.45
2023-11-07T21:55:09.912Z,1.70
2023-11-07T21:57:37.561Z,1.90
2023-11-07T22:00:05.699Z,1.80
2023-11-07T22:02:40.046Z,1.95
2023-11-07T22:05:08.651Z,1.73
2023-11-07T22:07:35.874Z,1.95
2023-11-07T22:10:05.468Z,1.88
2023-11-07T22:12:32.606Z,2.20
2023-11-07T22:14:59.645Z,1.90
2023-11-07T22:17:26.687Z,1.85
2023-11-07T22:19:53.583Z,1.60
2023-11-07T22:22:20.654Z,2.33
2023-11-07T22:24:47.575Z,2.08
2023-11-07T22:27:14.819Z,1.73
2023-11-07T22:29:42.037Z,2.08
2023-11-07T22:32:09.201Z,1.58
2023-11-07T22:34:36.381Z,1.60
2023-11-07T22:37:03.488Z,1.75
2023-11-07T22:39:30.564Z,1.30
2023-11-07T22:41:57.630Z,1.67
2023-11-07T22:44:25.005Z,1.30
2023-11-07T22:46:52.067Z,1.70
2023-11-07T22:49:21.575Z,1.40
2023-11-07T22:51:51.226Z,1.35
2023-11-07T22:54:18.079Z,1.23
2023-11-07T22:56:45.048Z,1.20
2023-11-07T22:59:12.964Z,1.30
2023-11-07T23:01:41.432Z,1.20
2023-11-07T23:04:08.648Z,1.30
2023-11-07T23:06:35.980Z,0.90
2023-11-07T23:09:03.196Z,2.05
2023-11-07T23:11:30.108Z,1.33
2023-11-07T23:13:58.520Z,0.90
2023-11-07T23:16:25.631Z,1.00
2023-11-07T23:18:53.044Z,1.30
2023-11-07T23:21:20.250Z,1.17
2023-11-07T23:23:47.519Z,1.33
2023-11-07T23:26:14.453Z,1.15
2023-11-07T23:28:41.787Z,1.13
2023-11-07T23:31:08.884Z,1.00
2023-11-07T23:33:36.126Z,1.20
2023-11-07T23:36:03.350Z,1.20
2023-11-07T23:38:31.472Z,1.00
2023-11-07T23:40:59.170Z,1.05
2023-11-07T23:43:27.898Z,1.55
2023-11-07T23:45:55.253Z,0.93
2023-11-07T23:48:22.691Z,1.23
2023-11-07T23:50:49.698Z,1.10
2023-11-07T23:53:17.629Z,0.88
2023-11-07T23:55:45.308Z,1.23
2023-11-07T23:58:12.238Z,1.05
